Time;durP1;ratioP1;P1;durP2;ratioP2;P2;SDS_P1;SDS_P2;PMS_P1;PMS_P2;Temp;Humidity;BMP_temperature;BMP_pressure;BME280_temperature;BME280_humidity;BME280_pressure;Samples;Min_cycle;Max_cycle;Signal;HPM_P1;HPM_P2
2023/02/18 00:01:25;;;;;;;9.82;5.03;;;10.10;92.60;;;;;;5096289;28;20046;-72
2023/02/18 00:03:51;;;;;;;8.40;4.60;;;10.00;92.60;;;;;;5114397;28;20050;-71
2023/02/18 00:06:20;;;;;;;10.32;5.03;;;10.10;92.60;;;;;;5114400;28;20039;-71
2023/02/18 00:08:47;;;;;;;9.77;5.63;;;10.00;92.60;;;;;;5114307;28;20048;-72
2023/02/18 00:11:13;;;;;;;9.13;5.72;;;10.10;92.60;;;;;;5114471;28;20043;-72
2023/02/18 00:13:39;;;;;;;12.27;6.22;;;10.00;92.60;;;;;;5114803;28;20036;-72
2023/02/18 00:16:10;;;;;;;9.60;5.10;;;10.00;92.60;;;;;;5114716;28;20050;-71
2023/02/18 00:18:36;;;;;;;10.23;4.95;;;10.00;92.60;;;;;;5114199;28;20055;-72
2023/02/18 00:21:04;;;;;;;12.07;5.70;;;10.00;92.60;;;;;;5096592;28;20093;-72
2023/02/18 00:23:30;;;;;;;11.10;5.55;;;10.10;92.70;;;;;;5114056;28;20092;-72
2023/02/18 00:26:02;;;;;;;8.80;5.00;;;10.00;92.60;;;;;;5114110;28;20043;-72
2023/02/18 00:28:27;;;;;;;9.73;4.53;;;10.00;92.70;;;;;;5095850;28;20066;-71
2023/02/18 00:30:53;;;;;;;11.50;5.00;;;10.00;92.70;;;;;;5113744;28;20076;-72
2023/02/18 00:33:19;;;;;;;10.40;5.18;;;10.00;92.70;;;;;;5095789;28;20126;-72
2023/02/18 00:35:44;;;;;;;10.15;5.03;;;10.00;92.70;;;;;;5095524;28;20092;-72
2023/02/18 00:38:10;;;;;;;10.35;5.72;;;10.00;92.70;;;;;;5095572;28;20036;-71
2023/02/18 00:40:38;;;;;;;11.93;5.72;;;10.00;92.70;;;;;;5113787;28;20135;-71
2023/02/18 00:43:03;;;;;;;11.88;6.00;;;10.00;92.70;;;;;;5096200;28;20040;-72
2023/02/18 00:45:29;;;;;;;11.77;6.10;;;10.00;92.70;;;;;;5113624;28;20055;-72
2023/02/18 00:47:55;;;;;;;10.50;5.10;;;10.00;92.70;;;;;;5095396;28;20048;-73
2023/02/18 00:50:21;;;;;;;9.43;5.20;;;10.00;92.70;;;;;;5113963;28;20051;-72
2023/02/18 00:52:46;;;;;;;9.70;5.22;;;10.00;92.70;;;;;;5095326;28;20366;-73
2023/02/18 00:55:12;;;;;;;10.05;5.47;;;9.90;92.70;;;;;;5113442;28;20045;-72
2023/02/18 00:57:38;;;;;;;11.15;5.07;;;10.00;92.70;;;;;;5113689;28;20039;-71
2023/02/18 01:00:06;;;;;;;10.88;5.82;;;10.10;92.80;;;;;;5113532;28;20122;-70
2023/02/18 01:02:31;;;;;;;10.75;4.97;;;10.10;92.80;;;;;;5094721;28;20044;-71
2023/02/18 01:04:57;;;;;;;10.00;5.60;;;10.10;92.70;;;;;;5113115;28;20088;-72
2023/02/18 01:07:23;;;;;;;12.65;6.03;;;10.10;92.70;;;;;;5112989;28;20106;-71
2023/02/18 01:09:48;;;;;;;11.10;5.85;;;10.00;92.70;;;;;;5094734;28;20054;-72
2023/02/18 01:12:14;;;;;;;10.38;5.70;;;10.10;92.70;;;;;;5112961;28;20044;-71
2023/02/18 01:14:40;;;;;;;11.07;5.40;;;10.10;92.70;;;;;;5094558;28;20039;-71
2023/02/18 01:17:06;;;;;;;12.15;6.25;;;10.10;92.70;;;;;;5113014;28;20043;-72
2023/02/18 01:19:31;;;;;;;10.98;6.43;;;10.10;92.70;;;;;;5112867;28;20396;-72
2023/02/18 01:21:57;;;;;;;12.93;6.57;;;10.10;92.70;;;;;;5113411;28;21273;-71
2023/02/18 01:24:23;;;;;;;9.95;5.57;;;10.20;92.70;;;;;;5094722;28;20497;-72
2023/02/18 01:26:48;;;;;;;10.30;6.00;;;10.20;92.70;;;;;;5095293;28;20167;-72
2023/02/18 01:29:14;;;;;;;9.73;5.32;;;10.10;92.70;;;;;;5095266;28;20065;-72
2023/02/18 01:31:40;;;;;;;9.18;5.07;;;10.10;92.70;;;;;;5112740;28;20525;-71
2023/02/18 01:34:05;;;;;;;9.30;5.03;;;10.20;92.70;;;;;;5113407;28;20474;-72
2023/02/18 01:36:31;;;;;;;9.40;5.28;;;10.10;92.70;;;;;;5094578;28;20039;-72
2023/02/18 01:38:56;;;;;;;7.97;4.57;;;10.20;92.70;;;;;;5113354;28;20047;-72
2023/02/18 01:41:23;;;;;;;9.77;4.72;;;10.20;92.80;;;;;;5113337;28;20035;-72
2023/02/18 01:44:08;;;;;;;8.32;4.20;;;10.20;92.80;;;;;;5113284;28;20048;-72
2023/02/18 01:46:34;;;;;;;9.95;4.60;;;10.20;92.80;;;;;;5097140;28;20047;-72
2023/02/18 01:49:00;;;;;;;9.68;4.65;;;10.20;92.80;;;;;;5094368;28;20050;-71
2023/02/18 01:51:43;;;;;;;9.35;5.07;;;10.20;93.10;;;;;;5112275;28;20085;-73
2023/02/18 01:54:14;;;;;;;10.52;6.20;;;10.20;92.80;;;;;;5112972;28;20036;-71
2023/02/18 01:56:47;;;;;;;12.02;6.18;;;10.20;92.80;;;;;;5093732;28;20035;-72
2023/02/18 01:59:17;;;;;;;12.88;6.50;;;10.20;92.80;;;;;;5094483;28;20086;-71
2023/02/18 02:01:44;;;;;;;10.02;5.53;;;10.10;92.80;;;;;;5089709;28;20409;-71
2023/02/18 02:04:10;;;;;;;9.98;5.75;;;10.10;92.80;;;;;;5094170;28;20100;-71
2023/02/18 02:06:36;;;;;;;11.45;5.75;;;10.10;92.80;;;;;;5094131;28;20489;-71
2023/02/18 02:09:05;;;;;;;11.88;6.43;;;10.10;92.80;;;;;;5112306;28;20104;-72
2023/02/18 02:12:01;;;;;;;11.35;6.07;;;10.10;92.80;;;;;;5093993;28;20068;-72
2023/02/18 02:14:49;;;;;;;11.80;6.32;;;10.10;92.90;;;;;;5115188;28;20429;-72
2023/02/18 02:17:43;;;;;;;14.10;6.35;;;10.10;92.90;;;;;;5114558;28;20516;-72
2023/02/18 02:20:31;;;;;;;13.75;6.57;;;10.10;92.90;;;;;;5115642;28;20039;-72
2023/02/18 02:23:28;;;;;;;10.82;6.15;;;10.10;92.90;;;;;;5115711;28;20122;-72
2023/02/18 02:26:25;;;;;;;12.90;5.90;;;10.10;92.90;;;;;;5098351;28;20047;-72
2023/02/18 02:29:21;;;;;;;13.40;6.18;;;10.10;92.90;;;;;;5115308;28;20035;-72
2023/02/18 02:32:12;;;;;;;11.52;5.68;;;10.10;92.90;;;;;;5084757;28;20129;-72
2023/02/18 02:34:46;;;;;;;11.50;6.28;;;10.10;92.90;;;;;;5115081;28;20123;-72
2023/02/18 02:37:24;;;;;;;10.93;5.80;;;10.20;92.90;;;;;;5115806;28;20044;-72
2023/02/18 02:40:12;;;;;;;14.73;7.45;;;10.20;92.90;;;;;;5115852;28;20398;-72
2023/02/18 02:42:59;;;;;;;14.63;7.13;;;10.20;92.90;;;;;;5115245;28;20044;-72
2023/02/18 02:45:40;;;;;;;14.80;8.77;;;10.30;92.90;;;;;;5080379;28;20063;-72
2023/02/18 02:48:14;;;;;;;;;;;10.30;92.80;;;;;;5081781;28;20047;-72
2023/02/18 02:50:50;;;;;;;16.17;8.73;;;10.40;92.80;;;;;;5115241;28;20014;-72
2023/02/18 02:53:21;;;;;;;15.02;8.48;;;10.40;92.80;;;;;;5115369;28;20473;-72
2023/02/18 02:55:46;;;;;;;16.45;8.05;;;10.40;92.80;;;;;;5080148;28;20130;-72
2023/02/18 02:58:16;;;;;;;16.13;8.85;;;10.40;92.80;;;;;;5115273;28;20532;-72
2023/02/18 03:01:13;;;;;;;18.88;9.07;;;10.40;92.80;;;;;;5080152;28;20039;-72
2023/02/18 03:04:14;;;;;;;17.63;8.63;;;10.40;92.80;;;;;;5101676;28;20051;-73
2023/02/18 03:07:14;;;;;;;15.73;8.90;;;10.40;92.80;;;;;;5099438;28;20046;-72
2023/02/18 03:10:10;;;;;;;17.90;8.98;;;10.50;92.80;;;;;;5096236;28;20184;-73
2023/02/18 03:12:54;;;;;;;19.27;9.15;;;10.40;92.80;;;;;;5083808;28;20051;-72
2023/02/18 03:15:46;;;;;;;18.55;9.85;;;10.50;92.80;;;;;;5099434;28;20043;-72
2023/02/18 03:18:36;;;;;;;16.73;9.25;;;10.40;92.80;;;;;;5096318;28;20039;-72
2023/02/18 03:21:16;;;;;;;17.90;9.50;;;10.50;92.80;;;;;;5099742;28;20050;-72
2023/02/18 03:23:52;;;;;;;15.10;8.35;;;10.50;92.80;;;;;;5114714;28;20047;-72
2023/02/18 03:26:18;;;;;;;17.58;9.35;;;10.50;92.80;;;;;;5097371;28;20043;-72
2023/02/18 03:28:47;;;;;;;14.95;7.97;;;10.50;92.80;;;;;;5114830;28;20043;-72
2023/02/18 03:31:17;;;;;;;14.50;7.53;;;10.50;92.80;;;;;;5097013;28;20035;-72
2023/02/18 03:33:53;;;;;;;12.88;6.70;;;10.50;92.90;;;;;;5096926;28;20039;-72
2023/02/18 03:36:20;;;;;;;11.35;5.88;;;10.50;92.90;;;;;;5080928;28;20057;-72
2023/02/18 03:38:58;;;;;;;12.43;6.70;;;10.60;92.90;;;;;;5094466;28;20035;-72
2023/02/18 03:41:24;;;;;;;10.73;6.18;;;10.50;92.90;;;;;;5114159;28;20036;-73
2023/02/18 03:43:59;;;;;;;11.70;6.45;;;10.60;93.00;;;;;;5096284;28;20457;-72
2023/02/18 03:46:26;;;;;;;9.60;5.50;;;10.60;93.00;;;;;;5114054;28;20040;-72
2023/02/18 03:48:52;;;;;;;12.13;6.45;;;10.60;93.00;;;;;;5096802;28;20048;-72
2023/02/18 03:51:18;;;;;;;12.07;6.13;;;10.60;93.00;;;;;;5114444;28;20043;-72
2023/02/18 03:53:44;;;;;;;9.68;5.53;;;10.50;93.00;;;;;;5114606;28;20031;-72
2023/02/18 03:56:11;;;;;;;10.23;5.68;;;10.60;93.00;;;;;;5096455;28;20044;-72
2023/02/18 03:58:36;;;;;;;8.40;5.00;;;10.60;93.00;;;;;;5096359;28;20047;-72
2023/02/18 04:01:02;;;;;;;9.13;4.88;;;10.60;93.00;;;;;;5079217;28;20492;-72
2023/02/18 04:03:28;;;;;;;8.43;4.30;;;10.60;93.00;;;;;;5114482;28;20063;-72
2023/02/18 04:05:54;;;;;;;7.72;4.20;;;10.60;93.00;;;;;;5114392;28;20088;-72
2023/02/18 04:08:19;;;;;;;7.68;4.13;;;10.60;93.10;;;;;;5114781;28;20040;-71
2023/02/18 04:10:45;;;;;;;6.93;3.78;;;10.60;93.10;;;;;;5078926;28;20055;-72
2023/02/18 04:13:10;;;;;;;7.40;4.00;;;10.60;93.10;;;;;;5113937;28;20405;-72
2023/02/18 04:15:36;;;;;;;6.60;3.60;;;10.60;93.10;;;;;;5095999;28;20069;-72
2023/02/18 04:18:02;;;;;;;7.68;3.85;;;10.60;93.10;;;;;;5114024;28;20456;-72
2023/02/18 04:20:28;;;;;;;7.18;3.95;;;10.70;93.10;;;;;;5078833;28;20115;-72
2023/02/18 04:22:53;;;;;;;8.32;4.28;;;10.60;93.10;;;;;;5095660;28;20043;-72
2023/02/18 04:25:19;;;;;;;8.75;4.63;;;10.60;93.10;;;;;;5114341;28;20034;-72
2023/02/18 04:27:44;;;;;;;8.57;4.50;;;10.60;93.10;;;;;;5113733;28;20378;-71
2023/02/18 04:30:11;;;;;;;10.10;4.97;;;10.60;93.10;;;;;;5095359;28;20044;-72
2023/02/18 04:32:36;;;;;;;8.57;4.43;;;10.70;93.20;;;;;;5113738;28;20042;-72
2023/02/18 04:35:02;;;;;;;7.93;4.25;;;10.60;93.20;;;;;;5095312;28;20130;-72
2023/02/18 04:37:28;;;;;;;8.10;4.68;;;10.60;93.20;;;;;;5113294;28;20473;-72
2023/02/18 04:39:54;;;;;;;8.70;4.22;;;10.60;93.20;;;;;;5113889;28;20042;-72
2023/02/18 04:42:19;;;;;;;8.70;4.30;;;10.70;93.20;;;;;;5078398;28;20047;-71
2023/02/18 04:44:45;;;;;;;7.47;4.22;;;10.60;93.20;;;;;;5095005;28;20137;-72
2023/02/18 04:47:10;;;;;;;7.60;4.05;;;10.70;93.20;;;;;;5114009;28;20381;-72
2023/02/18 04:49:36;;;;;;;8.70;4.28;;;10.70;93.20;;;;;;5095738;28;20031;-72
2023/02/18 04:52:02;;;;;;;7.22;4.00;;;10.70;93.20;;;;;;5095142;28;20130;-71
2023/02/18 04:54:28;;;;;;;8.10;4.03;;;10.60;93.20;;;;;;5113595;28;20040;-72
2023/02/18 04:56:54;;;;;;;7.18;3.95;;;10.70;93.30;;;;;;5095547;28;20047;-72
2023/02/18 04:59:19;;;;;;;7.75;4.20;;;10.60;93.20;;;;;;5113266;28;20477;-73
2023/02/18 05:01:45;;;;;;;6.95;3.45;;;10.60;93.20;;;;;;5095533;28;20043;-72
2023/02/18 05:04:10;;;;;;;7.78;3.88;;;10.60;93.30;;;;;;5113939;28;20055;-72
2023/02/18 05:06:38;;;;;;;5.72;3.22;;;10.70;93.30;;;;;;5078307;28;20552;-72
2023/02/18 05:09:04;;;;;;;6.68;3.45;;;10.60;93.30;;;;;;5113419;28;20371;-72
2023/02/18 05:11:30;;;;;;;5.68;3.17;;;10.70;93.30;;;;;;5095926;28;20085;-74
2023/02/18 05:13:56;;;;;;;6.20;3.30;;;10.60;93.30;;;;;;5114056;28;20053;-73
2023/02/18 05:16:21;;;;;;;5.22;2.92;;;10.60;93.60;;;;;;5113948;28;20390;-72
2023/02/18 05:18:47;;;;;;;5.63;2.95;;;10.60;93.30;;;;;;5113223;28;20122;-72
2023/02/18 05:21:12;;;;;;;4.72;2.53;;;10.60;93.30;;;;;;5061527;28;20438;-72
2023/02/18 05:23:38;;;;;;;5.75;2.90;;;10.70;93.40;;;;;;5113290;28;20043;-72
2023/02/18 05:26:04;;;;;;;5.80;3.33;;;10.60;93.30;;;;;;5113171;28;20130;-72
2023/02/18 05:28:29;;;;;;;5.95;3.58;;;10.60;93.30;;;;;;5078065;28;20130;-72
2023/02/18 05:30:55;;;;;;;5.47;3.05;;;10.60;93.30;;;;;;5113497;28;20116;-72
2023/02/18 05:33:21;;;;;;;5.80;3.25;;;10.60;93.40;;;;;;5094685;28;20501;-72
2023/02/18 05:35:47;;;;;;;6.03;3.20;;;10.60;93.40;;;;;;5112896;28;20393;-72
2023/02/18 05:38:13;;;;;;;5.28;3.00;;;10.60;93.40;;;;;;5113001;28;20073;-73
2023/02/18 05:40:39;;;;;;;5.93;3.00;;;10.60;93.40;;;;;;5113037;28;20370;-72
2023/02/18 05:43:05;;;;;;;5.05;2.92;;;10.60;93.40;;;;;;5113348;28;20379;-72
2023/02/18 05:45:30;;;;;;;4.43;2.55;;;10.60;93.40;;;;;;5113329;28;20040;-73
2023/02/18 05:47:56;;;;;;;5.05;2.50;;;10.60;93.40;;;;;;5094654;28;20035;-72
2023/02/18 05:50:22;;;;;;;4.78;2.75;;;10.60;93.40;;;;;;5094645;28;20040;-72
2023/02/18 05:52:48;;;;;;;4.95;2.72;;;10.60;93.50;;;;;;5113000;28;20089;-72
2023/02/18 05:55:13;;;;;;;5.15;2.53;;;10.60;93.50;;;;;;5113253;28;20376;-72
2023/02/18 05:57:39;;;;;;;4.10;2.30;;;10.60;93.50;;;;;;5077452;28;20892;-72
2023/02/18 06:00:08;;;;;;;3.97;2.10;;;10.60;93.50;;;;;;5112902;28;20043;-72
2023/02/18 06:02:33;;;;;;;3.00;1.70;;;10.60;93.50;;;;;;5112551;28;20035;-72
2023/02/18 06:04:59;;;;;;;3.55;1.92;;;10.60;93.50;;;;;;5094785;28;20562;-72
2023/02/18 06:07:24;;;;;;;4.95;2.50;;;10.60;93.60;;;;;;5094291;28;20109;-72
2023/02/18 06:09:50;;;;;;;3.95;2.13;;;10.60;93.60;;;;;;5077345;28;20043;-72
2023/02/18 06:12:19;;;;;;;3.70;2.10;;;10.50;93.50;;;;;;5112799;28;20040;-72
2023/02/18 06:14:45;;;;;;;3.85;2.22;;;10.50;93.60;;;;;;5112443;28;20130;-72
2023/02/18 06:17:12;;;;;;;4.15;2.40;;;10.50;93.60;;;;;;5112844;28;20039;-72
2023/02/18 06:19:38;;;;;;;4.43;2.40;;;10.50;93.60;;;;;;5094009;28;20032;-72
2023/02/18 06:22:04;;;;;;;4.50;2.65;;;10.50;93.60;;;;;;5112362;28;20047;-72
2023/02/18 06:24:30;;;;;;;4.18;2.40;;;10.50;93.60;;;;;;5112777;28;20070;-72
2023/02/18 06:26:56;;;;;;;3.85;2.25;;;10.50;93.60;;;;;;5112748;28;20063;-72
2023/02/18 06:29:22;;;;;;;3.75;2.15;;;10.50;93.60;;;;;;5112893;28;20031;-71
2023/02/18 06:31:47;;;;;;;4.20;2.40;;;10.50;93.60;;;;;;5112769;28;20125;-72
2023/02/18 06:34:13;;;;;;;3.85;2.17;;;10.50;93.70;;;;;;5112300;28;20477;-72
2023/02/18 06:36:41;;;;;;;3.38;2.17;;;10.40;93.60;;;;;;5094151;28;20039;-73
2023/02/18 06:39:07;;;;;;;3.20;2.08;;;10.40;93.70;;;;;;5112989;28;20055;-72
2023/02/18 06:41:33;;;;;;;3.45;2.30;;;10.40;93.70;;;;;;5112874;28;20074;-72
2023/02/18 06:43:59;;;;;;;3.38;2.10;;;10.40;93.70;;;;;;5112688;28;20445;-72
2023/02/18 06:46:24;;;;;;;3.67;2.08;;;10.50;93.70;;;;;;5112105;28;20130;-72
2023/02/18 06:48:50;;;;;;;3.08;1.90;;;10.40;93.70;;;;;;5112226;28;20126;-72
2023/02/18 06:51:18;;;;;;;3.65;1.83;;;10.40;93.70;;;;;;5093983;28;20481;-72
2023/02/18 06:53:44;;;;;;;3.65;2.13;;;10.40;93.70;;;;;;5112014;28;20044;-72
2023/02/18 06:56:10;;;;;;;5.13;2.60;;;10.40;93.70;;;;;;5094678;28;20469;-72
2023/02/18 06:58:37;;;;;;;3.53;2.10;;;10.40;93.70;;;;;;5112207;28;20076;-72
2023/02/18 07:01:03;;;;;;;3.90;2.13;;;10.30;93.70;;;;;;5115315;28;20039;-72
2023/02/18 07:03:29;;;;;;;3.47;2.13;;;10.30;93.70;;;;;;5097049;28;20050;-73
2023/02/18 07:05:55;;;;;;;5.45;2.88;;;10.40;93.80;;;;;;5097312;28;20039;-72
2023/02/18 07:08:21;;;;;;;4.40;2.50;;;10.30;93.80;;;;;;5115846;28;20039;-72
2023/02/18 07:10:47;;;;;;;5.10;2.40;;;10.40;93.80;;;;;;5096849;28;20056;-72
2023/02/18 07:13:13;;;;;;;4.20;2.40;;;10.30;93.80;;;;;;5115293;28;20073;-72
2023/02/18 07:15:39;;;;;;;5.18;2.95;;;10.30;93.80;;;;;;5115341;28;20071;-72
2023/02/18 07:18:05;;;;;;;5.65;2.92;;;10.30;93.80;;;;;;5115243;28;20587;-72
2023/02/18 07:20:30;;;;;;;5.13;2.97;;;10.30;93.80;;;;;;5115148;28;20035;-72
2023/02/18 07:22:56;;;;;;;5.53;2.75;;;10.30;93.80;;;;;;5096727;28;20405;-72
2023/02/18 07:25:22;;;;;;;5.50;2.55;;;10.40;93.90;;;;;;5115034;28;20032;-72
2023/02/18 07:27:48;;;;;;;4.47;2.80;;;10.30;93.80;;;;;;5114949;28;20039;-72
2023/02/18 07:30:14;;;;;;;5.32;2.95;;;10.30;94.10;;;;;;5114973;28;20040;-72
2023/02/18 07:32:39;;;;;;;5.22;3.10;;;10.30;93.80;;;;;;5096534;28;20044;-72
2023/02/18 07:35:05;;;;;;;5.70;3.30;;;10.40;93.80;;;;;;5096515;28;20065;-72
2023/02/18 07:37:31;;;;;;;4.68;2.60;;;10.30;93.80;;;;;;5096788;28;20105;-72
2023/02/18 07:39:57;;;;;;;5.93;3.45;;;10.30;93.80;;;;;;5114855;28;20114;-72
2023/02/18 07:42:23;;;;;;;6.05;3.33;;;10.30;93.80;;;;;;5096543;28;20409;-72
2023/02/18 07:44:48;;;;;;;6.18;3.50;;;10.30;93.80;;;;;;5114705;28;20488;-72
2023/02/18 07:47:18;;;;;;;5.72;3.22;;;10.30;94.10;;;;;;5115060;28;20040;-72
2023/02/18 07:49:44;;;;;;;7.47;3.83;;;10.30;93.80;;;;;;5096960;28;20036;-73
2023/02/18 07:52:10;;;;;;;8.75;4.53;;;10.30;93.80;;;;;;5114521;28;20047;-72
2023/02/18 07:54:36;;;;;;;7.20;4.00;;;10.30;93.80;;;;;;5115123;28;20044;-72
2023/02/18 07:57:01;;;;;;;7.65;4.00;;;10.30;93.80;;;;;;5096189;28;20039;-72
2023/02/18 07:59:27;;;;;;;8.73;4.10;;;10.40;93.80;;;;;;5114543;28;20040;-73
2023/02/18 08:01:53;;;;;;;8.45;4.43;;;10.40;93.80;;;;;;5096748;28;20047;-72
2023/02/18 08:04:18;;;;;;;8.18;4.25;;;10.40;93.80;;;;;;5114791;28;20051;-73
2023/02/18 08:06:46;;;;;;;6.15;3.63;;;10.30;93.70;;;;;;5096047;28;20040;-73
2023/02/18 08:09:13;;;;;;;7.53;4.20;;;10.40;93.70;;;;;;5113479;28;20062;-73
2023/02/18 08:11:38;;;;;;;9.68;4.10;;;10.30;93.70;;;;;;5113029;28;20035;-73
2023/02/18 08:14:05;;;;;;;8.55;3.63;;;10.40;93.70;;;;;;5114902;28;20058;-73
2023/02/18 08:16:30;;;;;;;8.68;3.75;;;10.40;93.70;;;;;;5114464;28;20093;-72
2023/02/18 08:18:57;;;;;;;7.70;3.10;;;10.40;93.60;;;;;;5115189;28;20039;-72
2023/02/18 08:21:24;;;;;;;6.53;3.30;;;10.40;93.60;;;;;;5114789;28;20112;-72
2023/02/18 08:23:51;;;;;;;7.82;3.63;;;10.40;93.60;;;;;;5114031;28;20039;-71
2023/02/18 08:26:17;;;;;;;7.13;3.67;;;10.40;93.60;;;;;;5114182;28;20088;-72
2023/02/18 08:28:44;;;;;;;6.72;3.45;;;10.40;93.60;;;;;;5114723;28;20048;-72
2023/02/18 08:31:20;;;;;;;7.18;3.80;;;10.40;93.50;;;;;;5114044;28;20539;-72
2023/02/18 08:33:47;;;;;;;8.45;4.60;;;10.50;93.80;;;;;;5114087;28;20118;-72
2023/02/18 08:36:13;;;;;;;9.80;4.53;;;10.40;93.50;;;;;;5114541;28;20070;-72
2023/02/18 08:38:38;;;;;;;10.75;5.53;;;10.40;93.50;;;;;;5113900;28;20031;-72
2023/02/18 08:41:06;;;;;;;9.07;5.10;;;10.40;93.50;;;;;;5113974;28;20427;-72
2023/02/18 08:43:32;;;;;;;8.55;4.78;;;10.40;93.50;;;;;;5079619;28;20082;-72
2023/02/18 08:45:58;;;;;;;9.32;5.07;;;10.40;93.50;;;;;;5114366;28;20417;-71
2023/02/18 08:48:24;;;;;;;9.73;5.30;;;10.30;93.50;;;;;;5113762;28;20097;-72
2023/02/18 08:50:50;;;;;;;9.98;5.25;;;10.30;93.50;;;;;;5113797;28;20119;-72
2023/02/18 08:53:17;;;;;;;9.35;4.85;;;10.30;93.50;;;;;;5114122;28;20118;-71
2023/02/18 08:55:43;;;;;;;8.75;4.75;;;10.30;93.50;;;;;;5114092;28;20485;-72
2023/02/18 08:58:09;;;;;;;12.10;5.15;;;10.30;93.50;;;;;;5095913;28;20088;-72
2023/02/18 09:00:35;;;;;;;9.70;4.88;;;10.30;93.50;;;;;;5113409;28;20096;-72
2023/02/18 09:03:02;;;;;;;7.88;4.68;;;10.20;93.50;;;;;;5096001;28;20032;-72
2023/02/18 09:05:27;;;;;;;8.80;4.80;;;10.20;93.50;;;;;;5095281;28;20107;-74
2023/02/18 09:07:53;;;;;;;9.73;4.30;;;10.30;93.50;;;;;;5113523;28;20067;-72
2023/02/18 09:10:19;;;;;;;9.07;3.72;;;10.10;93.50;;;;;;5061886;28;20065;-73
2023/02/18 09:12:44;;;;;;;10.27;3.75;;;10.20;93.40;;;;;;5113734;28;20390;-73
2023/02/18 09:15:10;;;;;;;8.07;3.28;;;10.10;93.40;;;;;;5095030;28;20047;-73
2023/02/18 09:17:36;;;;;;;7.22;3.40;;;10.00;93.50;;;;;;5113287;28;20043;-72
2023/02/18 09:20:03;;;;;;;6.70;3.40;;;10.00;93.50;;;;;;5095045;28;20036;-72
2023/02/18 09:22:28;;;;;;;7.43;2.88;;;10.00;93.60;;;;;;5094785;28;20039;-73
2023/02/18 09:24:54;;;;;;;5.93;2.75;;;10.00;93.60;;;;;;5113107;28;20035;-73
2023/02/18 09:27:21;;;;;;;6.00;2.65;;;9.90;93.50;;;;;;5094791;28;20396;-73
2023/02/18 09:29:48;;;;;;;8.50;2.90;;;10.00;93.60;;;;;;5094897;28;20044;-73
2023/02/18 09:32:17;;;;;;;7.65;2.70;;;9.90;93.60;;;;;;5112879;28;20039;-74
2023/02/18 09:34:44;;;;;;;6.63;2.50;;;9.80;93.60;;;;;;5112871;28;20035;-73
2023/02/18 09:37:10;;;;;;;5.90;2.60;;;9.80;93.60;;;;;;5113276;28;20129;-73
2023/02/18 09:39:36;;;;;;;6.72;2.63;;;9.80;93.60;;;;;;5061739;28;20035;-73
2023/02/18 09:42:06;;;;;;;5.78;2.70;;;9.80;93.60;;;;;;5094960;28;20512;-73
2023/02/18 09:44:37;;;;;;;5.20;2.40;;;9.80;93.60;;;;;;5094783;28;21084;-74
2023/02/18 09:47:11;;;;;;;6.47;2.30;;;9.80;93.60;;;;;;5113362;28;20100;-73
2023/02/18 09:49:41;;;;;;;8.02;2.90;;;9.80;93.60;;;;;;5094585;28;20458;-73
2023/02/18 09:52:29;;;;;;;7.80;2.20;;;9.90;93.60;;;;;;5112833;28;20047;-73
2023/02/18 09:54:55;;;;;;;5.88;2.25;;;9.90;93.50;;;;;;5094548;28;20035;-73
2023/02/18 09:57:26;;;;;;;4.40;2.13;;;9.90;93.50;;;;;;5113391;28;20430;-73
2023/02/18 09:59:59;;;;;;;7.33;2.53;;;9.90;93.40;;;;;;5113151;28;20077;-73
2023/02/18 10:02:26;;;;;;;4.95;1.98;;;9.90;93.40;;;;;;5094236;28;20043;-73
2023/02/18 10:04:53;;;;;;;7.95;2.50;;;9.80;93.40;;;;;;5113171;28;20044;-73
2023/02/18 10:07:26;;;;;;;6.38;2.00;;;9.90;93.40;;;;;;5113268;28;20052;-72
2023/02/18 10:09:54;;;;;;;5.15;2.00;;;9.90;93.40;;;;;;5094277;28;20499;-72
2023/02/18 10:12:21;;;;;;;6.03;1.67;;;9.90;93.40;;;;;;5112846;28;20075;-72
2023/02/18 10:14:51;;;;;;;5.68;1.70;;;9.90;93.30;;;;;;5112381;28;20051;-73
2023/02/18 10:17:19;;;;;;;4.53;1.70;;;10.00;93.30;;;;;;5112920;28;20039;-73
2023/02/18 10:19:47;;;;;;;6.90;1.45;;;10.00;93.30;;;;;;5094183;28;20040;-74
2023/02/18 10:22:15;;;;;;;7.18;2.30;;;10.00;93.20;;;;;;5112353;28;20078;-73
2023/02/18 10:24:48;;;;;;;5.82;1.80;;;10.00;93.20;;;;;;5112289;28;20124;-74
2023/02/18 10:27:27;;;;;;;5.43;1.75;;;10.00;93.20;;;;;;5112375;28;20486;-73
2023/02/18 10:29:54;;;;;;;10.07;2.05;;;10.10;93.20;;;;;;5093994;28;20130;-73
2023/02/18 10:32:36;;;;;;;7.57;1.80;;;10.00;93.10;;;;;;5076878;28;20046;-74
2023/02/18 10:35:20;;;;;;;8.55;2.63;;;10.00;93.20;;;;;;5113656;28;20086;-73
2023/02/18 10:37:58;;;;;;;6.43;2.20;;;10.00;93.20;;;;;;5096805;28;20043;-73
2023/02/18 10:40:56;;;;;;;5.35;2.00;;;10.00;93.20;;;;;;5097989;28;20492;-73
2023/02/18 10:43:51;;;;;;;6.53;1.80;;;10.00;93.20;;;;;;5114753;28;20055;-74
2023/02/18 10:46:31;;;;;;;6.60;2.15;;;9.90;93.20;;;;;;5116301;28;20051;-73
2023/02/18 10:49:11;;;;;;;5.03;1.52;;;10.00;93.20;;;;;;5081600;28;20478;-73
2023/02/18 10:51:50;;;;;;;5.85;1.77;;;10.00;93.20;;;;;;5115342;28;20040;-73
2023/02/18 10:54:15;;;;;;;4.70;1.73;;;10.00;93.20;;;;;;5098443;28;20027;-72
2023/02/18 10:56:48;;;;;;;6.68;2.08;;;10.00;93.10;;;;;;5097433;28;20446;-73
2023/02/18 10:59:20;;;;;;;6.00;1.80;;;10.00;93.10;;;;;;5098178;28;20080;-73
2023/02/18 11:01:55;;;;;;;3.67;1.60;;;10.00;93.10;;;;;;5114015;28;20039;-73
2023/02/18 11:04:26;;;;;;;5.60;2.05;;;10.00;93.20;;;;;;5096403;28;20134;-73
2023/02/18 11:06:51;;;;;;;5.57;1.63;;;10.00;93.20;;;;;;5097015;28;20095;-73
2023/02/18 11:09:40;;;;;;;6.07;2.22;;;9.90;93.20;;;;;;5097027;28;20096;-73
2023/02/18 11:12:17;;;;;;;8.15;1.80;;;9.90;93.20;;;;;;5099683;28;20044;-72
2023/02/18 11:14:47;;;;;;;5.95;1.90;;;10.00;93.20;;;;;;5098121;28;20063;-73
2023/02/18 11:17:19;;;;;;;4.22;1.83;;;10.00;93.20;;;;;;5097256;28;20039;-73
2023/02/18 11:19:55;;;;;;;3.75;1.70;;;10.10;93.20;;;;;;5114969;28;20040;-72
2023/02/18 11:22:25;;;;;;;4.72;1.90;;;10.20;93.20;;;;;;5095840;28;20110;-72
2023/02/18 11:24:55;;;;;;;4.15;1.70;;;10.10;93.10;;;;;;5095302;28;20042;-73
2023/02/18 11:27:31;;;;;;;6.25;1.98;;;10.30;93.10;;;;;;5113572;28;20043;-72
2023/02/18 11:30:05;;;;;;;5.45;1.83;;;10.20;93.10;;;;;;5115055;28;20039;-72
2023/02/18 11:32:34;;;;;;;4.43;1.65;;;10.30;93.10;;;;;;5115206;28;20096;-72
2023/02/18 11:35:04;;;;;;;7.53;1.90;;;10.40;93.00;;;;;;5079879;28;20084;-73
2023/02/18 11:37:32;;;;;;;6.15;2.17;;;10.30;93.00;;;;;;5097293;28;20097;-72
2023/02/18 11:39:58;;;;;;;5.78;2.22;;;10.30;93.00;;;;;;5115066;28;20040;-73
2023/02/18 11:42:26;;;;;;;5.78;2.38;;;10.30;93.00;;;;;;5115162;28;20040;-73
2023/02/18 11:44:55;;;;;;;6.45;1.90;;;10.40;93.00;;;;;;5079642;28;20044;-73
2023/02/18 11:47:24;;;;;;;6.78;1.98;;;10.50;93.00;;;;;;5096333;28;20497;-72
2023/02/18 11:50:19;;;;;;;4.03;1.63;;;10.50;92.90;;;;;;5112740;28;20548;-72
2023/02/18 11:52:48;;;;;;;7.65;2.60;;;10.70;92.90;;;;;;5114453;28;20568;-73
2023/02/18 11:55:20;;;;;;;7.18;2.40;;;10.60;92.80;;;;;;5114451;28;20047;-73
2023/02/18 11:58:05;;;;;;;7.03;2.03;;;10.70;92.70;;;;;;5114399;28;20044;-73
2023/02/18 12:00:43;;;;;;;5.43;2.20;;;10.70;92.70;;;;;;5097200;28;20406;-73
2023/02/18 12:03:29;;;;;;;6.10;2.00;;;10.70;92.70;;;;;;5096228;28;20047;-73
2023/02/18 12:05:59;;;;;;;8.10;2.78;;;10.60;92.60;;;;;;5079438;28;20099;-74
2023/02/18 12:08:31;;;;;;;8.55;3.05;;;10.70;92.60;;;;;;5062992;28;20126;-74
2023/02/18 12:11:00;;;;;;;;;;;10.80;92.70;;;;;;5113491;28;20054;-73
2023/02/18 12:13:54;;;;;;;8.20;2.88;;;10.80;92.60;;;;;;5096230;28;20021;-72
2023/02/18 12:16:42;;;;;;;5.25;2.70;;;10.80;92.50;;;;;;5115349;28;20126;-74
2023/02/18 12:19:36;;;;;;;6.90;2.40;;;10.80;92.50;;;;;;5112904;28;20023;-73
2023/02/18 12:22:21;;;;;;;5.93;2.58;;;10.80;92.60;;;;;;5082367;28;20042;-73
2023/02/18 12:25:12;;;;;;;5.43;2.45;;;10.80;92.60;;;;;;5113745;28;20043;-73
2023/02/18 12:27:57;;;;;;;3.70;1.98;;;10.70;92.60;;;;;;5096116;28;20462;-73
2023/02/18 12:30:53;;;;;;;4.38;2.20;;;10.70;92.70;;;;;;5114203;28;20032;-73
2023/02/18 12:33:42;;;;;;;6.63;2.58;;;10.70;92.70;;;;;;5098639;28;20056;-73
2023/02/18 12:36:43;;;;;;;8.02;2.70;;;10.70;92.70;;;;;;5114469;28;20055;-73
2023/02/18 12:39:18;;;;;;;4.22;2.17;;;10.70;92.80;;;;;;5113949;28;20024;-73
2023/02/18 12:42:01;;;;;;;7.38;2.80;;;10.70;92.80;;;;;;5094382;28;20118;-73
2023/02/18 12:45:01;;;;;;;6.53;2.28;;;10.70;92.80;;;;;;5094383;28;20077;-72
2023/02/18 12:48:01;;;;;;;4.35;2.13;;;10.70;92.80;;;;;;5095437;28;20046;-73
2023/02/18 12:50:47;;;;;;;5.75;2.50;;;10.80;92.80;;;;;;5113719;28;20434;-74
2023/02/18 12:53:28;;;;;;;6.00;2.50;;;10.80;92.70;;;;;;5080874;28;20044;-73
2023/02/18 12:56:26;;;;;;;4.47;2.40;;;10.90;92.70;;;;;;5095293;28;20375;-73
2023/02/18 12:59:14;;;;;;;5.38;2.50;;;10.90;92.70;;;;;;5098381;28;20043;-73
2023/02/18 13:02:02;;;;;;;5.30;2.22;;;10.90;92.70;;;;;;5095222;28;20050;-72
2023/02/18 13:04:48;;;;;;;5.45;2.10;;;10.90;92.60;;;;;;5093559;28;20072;-73